OAL463 KJFK-EGLL
Flight info
| Callsign | OAL463 |
|---|---|
| Flight time | N/A |
| Altitude | 33000 |
| Route | HAPIE DCT YAHOO DCT KANNI N97B SUPRY/M084F310 NATU ELSOX/N0479F310 DCT EVRIN DCT JETZI DCT AMFUL DCT ORZEB P2 SIRIC |
| Aircraft | B77L/H-SDE1E2E3FGHIJ2J3J4J5M1RWXY/LB1D1 |
Departure
| Time | N/A |
|---|---|
| Airport | John F. Kennedy International Airport (KJFK) |
Arrival
| Time | 2026-04-27 13:14 |
|---|---|
| Airport | London Heathrow Airport (EGLL) |
| Time | Latitude | Longitude | Altitude | Speed | Heading |
|---|---|---|---|---|---|
| 2026-04-27 12:33 | 51.42095 | -2.67563 | 24780 ft | 407 kts | 92° |
| 2026-04-27 12:34 | 51.41799 | -2.63063 | 24354 ft | 405 kts | 93° |
| 2026-04-27 12:34 | 51.41504 | -2.58600 | 23937 ft | 402 kts | 93° |
| 2026-04-27 12:34 | 51.41211 | -2.54168 | 23537 ft | 399 kts | 93° |
| 2026-04-27 12:34 | 51.40918 | -2.49762 | 23146 ft | 396 kts | 93° |
| 2026-04-27 12:35 | 51.40625 | -2.45389 | 22744 ft | 394 kts | 93° |
| 2026-04-27 12:35 | 51.40334 | -2.41109 | 22356 ft | 391 kts | 94° |
| 2026-04-27 12:35 | 51.40040 | -2.36793 | 21952 ft | 389 kts | 94° |
| 2026-04-27 12:35 | 51.39743 | -2.32447 | 21554 ft | 386 kts | 94° |
| 2026-04-27 12:36 | 51.39451 | -2.28188 | 21152 ft | 384 kts | 94° |
| 2026-04-27 12:36 | 51.39161 | -2.24002 | 20763 ft | 382 kts | 94° |
| 2026-04-27 12:36 | 51.38869 | -2.19790 | 20362 ft | 379 kts | 94° |
| 2026-04-27 12:36 | 51.38578 | -2.15609 | 19978 ft | 376 kts | 94° |
| 2026-04-27 12:37 | 51.38289 | -2.11464 | 19586 ft | 374 kts | 94° |
| 2026-04-27 12:37 | 51.37997 | -2.07329 | 19198 ft | 371 kts | 94° |
| 2026-04-27 12:37 | 51.37709 | -2.03242 | 18809 ft | 369 kts | 94° |
| 2026-04-27 12:37 | 51.37419 | -1.99180 | 18421 ft | 366 kts | 94° |
| 2026-04-27 12:38 | 51.37130 | -1.95148 | 18033 ft | 364 kts | 95° |
| 2026-04-27 12:38 | 51.36839 | -1.91135 | 17637 ft | 361 kts | 95° |
| 2026-04-27 12:38 | 51.36552 | -1.87150 | 17261 ft | 359 kts | 95° |
| 2026-04-27 12:38 | 51.36264 | -1.83193 | 16866 ft | 357 kts | 95° |
| 2026-04-27 12:39 | 51.35978 | -1.79266 | 16487 ft | 354 kts | 95° |
| 2026-04-27 12:39 | 51.35693 | -1.75369 | 16118 ft | 351 kts | 95° |
| 2026-04-27 12:39 | 51.35409 | -1.71509 | 15735 ft | 349 kts | 95° |
| 2026-04-27 12:39 | 51.35125 | -1.67661 | 15361 ft | 347 kts | 95° |
| 2026-04-27 12:40 | 51.34843 | -1.63849 | 14985 ft | 344 kts | 95° |
| 2026-04-27 12:40 | 51.34558 | -1.60051 | 14605 ft | 342 kts | 95° |
| 2026-04-27 12:40 | 51.34276 | -1.56287 | 14251 ft | 339 kts | 96° |
| 2026-04-27 12:40 | 51.33997 | -1.52552 | 14019 ft | 340 kts | 95° |
| 2026-04-27 12:41 | 51.33714 | -1.48754 | 13787 ft | 349 kts | 96° |
| 2026-04-27 12:41 | 51.33421 | -1.44876 | 13541 ft | 352 kts | 96° |
| 2026-04-27 12:41 | 51.33130 | -1.40976 | 13286 ft | 354 kts | 96° |
| 2026-04-27 12:41 | 51.32837 | -1.37075 | 13036 ft | 353 kts | 96° |
| 2026-04-27 12:42 | 51.32540 | -1.33185 | 12792 ft | 352 kts | 96° |
| 2026-04-27 12:42 | 51.32243 | -1.29303 | 12553 ft | 351 kts | 96° |
| 2026-04-27 12:42 | 51.31949 | -1.25436 | 12291 ft | 350 kts | 96° |
| 2026-04-27 12:42 | 51.31653 | -1.21567 | 12048 ft | 349 kts | 96° |
| 2026-04-27 12:43 | 51.31358 | -1.17732 | 11807 ft | 347 kts | 96° |
| 2026-04-27 12:43 | 51.31174 | -1.13894 | 11558 ft | 345 kts | 91° |
| 2026-04-27 12:43 | 51.31141 | -1.10071 | 11312 ft | 343 kts | 89° |
| 2026-04-27 12:43 | 51.31141 | -1.07558 | 11170 ft | 340 kts | 89° |
| 2026-04-27 12:44 | 51.31143 | -1.03808 | 10918 ft | 333 kts | 89° |
| 2026-04-27 12:44 | 51.31128 | -0.98933 | 10620 ft | 323 kts | 89° |
| 2026-04-27 12:44 | 51.31113 | -0.96582 | 10466 ft | 317 kts | 90° |
| 2026-04-27 12:44 | 51.31074 | -0.91949 | 10185 ft | 306 kts | 90° |
| 2026-04-27 12:45 | 51.31052 | -0.89736 | 10129 ft | 297 kts | 90° |
| 2026-04-27 12:45 | 51.31019 | -0.86461 | 9866 ft | 291 kts | 90° |
| 2026-04-27 12:45 | 51.30985 | -0.83263 | 9641 ft | 284 kts | 90° |
| 2026-04-27 12:45 | 51.30951 | -0.80132 | 9457 ft | 281 kts | 90° |
| 2026-04-27 12:46 | 51.30917 | -0.77017 | 9270 ft | 279 kts | 90° |
| 2026-04-27 12:46 | 51.30882 | -0.73926 | 9071 ft | 277 kts | 90° |
| 2026-04-27 12:46 | 51.30842 | -0.70879 | 8860 ft | 272 kts | 90° |
| 2026-04-27 12:46 | 51.30808 | -0.67853 | 8695 ft | 273 kts | 90° |
| 2026-04-27 12:47 | 51.30770 | -0.64814 | 8513 ft | 276 kts | 90° |
| 2026-04-27 12:47 | 51.30731 | -0.61740 | 8318 ft | 276 kts | 90° |
| 2026-04-27 12:47 | 51.30691 | -0.58685 | 8124 ft | 275 kts | 90° |
| 2026-04-27 12:47 | 51.30654 | -0.55638 | 7938 ft | 274 kts | 90° |
| 2026-04-27 12:48 | 51.30617 | -0.52595 | 7758 ft | 273 kts | 90° |
| 2026-04-27 12:48 | 51.30578 | -0.49573 | 7569 ft | 269 kts | 90° |
| 2026-04-27 12:48 | 51.30542 | -0.46664 | 7380 ft | 253 kts | 86° |
| 2026-04-27 12:48 | 51.30859 | -0.43991 | 7294 ft | 239 kts | 75° |
| 2026-04-27 12:49 | 51.31194 | -0.41388 | 7297 ft | 241 kts | 76° |
| 2026-04-27 12:49 | 51.31585 | -0.38767 | 7301 ft | 244 kts | 75° |
| 2026-04-27 12:49 | 51.31996 | -0.36115 | 7294 ft | 246 kts | 75° |
| 2026-04-27 12:49 | 51.32406 | -0.33479 | 7266 ft | 243 kts | 74° |
| 2026-04-27 12:50 | 51.32814 | -0.30880 | 7287 ft | 239 kts | 75° |
| 2026-04-27 12:50 | 51.33220 | -0.28297 | 7308 ft | 242 kts | 75° |
| 2026-04-27 12:50 | 51.33635 | -0.25657 | 7316 ft | 247 kts | 74° |
| 2026-04-27 12:50 | 51.34053 | -0.23009 | 7314 ft | 244 kts | 74° |
| 2026-04-27 12:51 | 51.34465 | -0.20393 | 7307 ft | 242 kts | 74° |
| 2026-04-27 12:51 | 51.34873 | -0.17788 | 7313 ft | 241 kts | 75° |
| 2026-04-27 12:51 | 51.35279 | -0.15197 | 7311 ft | 240 kts | 74° |
| 2026-04-27 12:51 | 51.35690 | -0.12601 | 7317 ft | 241 kts | 74° |
| 2026-04-27 12:52 | 51.36100 | -0.09995 | 7311 ft | 243 kts | 74° |
| 2026-04-27 12:52 | 51.36516 | -0.07362 | 7329 ft | 244 kts | 74° |
| 2026-04-27 12:52 | 51.36932 | -0.04710 | 7324 ft | 247 kts | 74° |
| 2026-04-27 12:52 | 51.37389 | -0.02056 | 7316 ft | 246 kts | 71° |
| 2026-04-27 12:53 | 51.38479 | 0.03116 | 7333 ft | 245 kts | 70° |
| 2026-04-27 12:53 | 51.39032 | 0.05705 | 7313 ft | 246 kts | 70° |
| 2026-04-27 12:53 | 51.39584 | 0.08298 | 7307 ft | 246 kts | 70° |
| 2026-04-27 12:54 | 51.40195 | 0.10832 | 7312 ft | 243 kts | 62° |
| 2026-04-27 12:54 | 51.40983 | 0.13231 | 7323 ft | 244 kts | 59° |
| 2026-04-27 12:54 | 51.41805 | 0.15616 | 7312 ft | 245 kts | 59° |
| 2026-04-27 12:54 | 51.42629 | 0.18007 | 7322 ft | 245 kts | 59° |
| 2026-04-27 12:55 | 51.43453 | 0.20410 | 7323 ft | 246 kts | 60° |
| 2026-04-27 12:55 | 51.44282 | 0.22817 | 7331 ft | 247 kts | 59° |
| 2026-04-27 12:55 | 51.45111 | 0.25229 | 7319 ft | 247 kts | 60° |
| 2026-04-27 12:55 | 51.45941 | 0.27642 | 7314 ft | 247 kts | 59° |
| 2026-04-27 12:56 | 51.46845 | 0.29947 | 7301 ft | 241 kts | 44° |
| 2026-04-27 12:56 | 51.48226 | 0.31336 | 7318 ft | 236 kts | 13° |
| 2026-04-27 12:56 | 51.49846 | 0.31801 | 7342 ft | 239 kts | 6° |
| 2026-04-27 12:56 | 51.51487 | 0.31547 | 7312 ft | 239 kts | 332° |
| 2026-04-27 12:57 | 51.52766 | 0.29881 | 7339 ft | 240 kts | 314° |
| 2026-04-27 12:57 | 51.53970 | 0.27966 | 7337 ft | 244 kts | 317° |
| 2026-04-27 12:57 | 51.55238 | 0.26182 | 7323 ft | 241 kts | 320° |
| 2026-04-27 12:57 | 51.56532 | 0.24511 | 7304 ft | 237 kts | 322° |
| 2026-04-27 12:58 | 51.57851 | 0.22913 | 7315 ft | 238 kts | 323° |
| 2026-04-27 12:58 | 51.59194 | 0.21346 | 7328 ft | 239 kts | 324° |
| 2026-04-27 12:58 | 51.60551 | 0.19787 | 7321 ft | 241 kts | 324° |
| 2026-04-27 12:58 | 51.61915 | 0.18232 | 7317 ft | 240 kts | 324° |
| 2026-04-27 12:59 | 51.63273 | 0.16675 | 7323 ft | 238 kts | 320° |
| 2026-04-27 12:59 | 51.64254 | 0.14598 | 7313 ft | 235 kts | 288° |
| 2026-04-27 12:59 | 51.64459 | 0.11991 | 7312 ft | 237 kts | 268° |
| 2026-04-27 12:59 | 51.64317 | 0.09333 | 7325 ft | 241 kts | 266° |
| 2026-04-27 13:00 | 51.64164 | 0.06639 | 7337 ft | 243 kts | 266° |
| 2026-04-27 13:00 | 51.64009 | 0.03912 | 7322 ft | 246 kts | 266° |
| 2026-04-27 13:00 | 51.63850 | 0.01186 | 7308 ft | 242 kts | 266° |
| 2026-04-27 13:00 | 51.63697 | -0.01494 | 7306 ft | 240 kts | 266° |
| 2026-04-27 13:01 | 51.63543 | -0.04169 | 7308 ft | 241 kts | 266° |
| 2026-04-27 13:01 | 51.63389 | -0.06868 | 7319 ft | 243 kts | 266° |
| 2026-04-27 13:01 | 51.63232 | -0.09596 | 7317 ft | 246 kts | 266° |
| 2026-04-27 13:01 | 51.63073 | -0.12355 | 7308 ft | 248 kts | 266° |
| 2026-04-27 13:02 | 51.62912 | -0.15119 | 7316 ft | 249 kts | 266° |
| 2026-04-27 13:02 | 51.62752 | -0.17883 | 7305 ft | 246 kts | 266° |
| 2026-04-27 13:02 | 51.62595 | -0.20609 | 7299 ft | 242 kts | 266° |
| 2026-04-27 13:02 | 51.62441 | -0.23307 | 7296 ft | 243 kts | 266° |
| 2026-04-27 13:03 | 51.62287 | -0.26023 | 7311 ft | 244 kts | 266° |
| 2026-04-27 13:03 | 51.62126 | -0.28752 | 7301 ft | 245 kts | 266° |
| 2026-04-27 13:03 | 51.61966 | -0.31488 | 7290 ft | 246 kts | 266° |
| 2026-04-27 13:03 | 51.61806 | -0.34195 | 7303 ft | 246 kts | 266° |
| 2026-04-27 13:04 | 51.61646 | -0.36931 | 7307 ft | 245 kts | 266° |
| 2026-04-27 13:04 | 51.61484 | -0.39664 | 7301 ft | 246 kts | 266° |
| 2026-04-27 13:04 | 51.61324 | -0.42398 | 7294 ft | 246 kts | 266° |
| 2026-04-27 13:04 | 51.61161 | -0.45142 | 7297 ft | 246 kts | 266° |
| 2026-04-27 13:05 | 51.60998 | -0.47883 | 7310 ft | 246 kts | 266° |
| 2026-04-27 13:05 | 51.60833 | -0.50626 | 7292 ft | 246 kts | 266° |
| 2026-04-27 13:05 | 51.60669 | -0.53368 | 7293 ft | 246 kts | 266° |
| 2026-04-27 13:05 | 51.60503 | -0.56109 | 7285 ft | 245 kts | 266° |
| 2026-04-27 13:06 | 51.60338 | -0.58821 | 7284 ft | 243 kts | 266° |
| 2026-04-27 13:06 | 51.60174 | -0.61528 | 7282 ft | 242 kts | 266° |
| 2026-04-27 13:06 | 51.60010 | -0.64206 | 7306 ft | 240 kts | 266° |
| 2026-04-27 13:06 | 51.59843 | -0.66904 | 7074 ft | 249 kts | 266° |
| 2026-04-27 13:07 | 51.59669 | -0.69734 | 6550 ft | 253 kts | 266° |
| 2026-04-27 13:07 | 51.59501 | -0.72436 | 6316 ft | 234 kts | 266° |
| 2026-04-27 13:07 | 51.59342 | -0.75002 | 6005 ft | 228 kts | 266° |
| 2026-04-27 13:07 | 51.58918 | -0.77432 | 5656 ft | 227 kts | 239° |
| 2026-04-27 13:08 | 51.57785 | -0.79104 | 5377 ft | 223 kts | 206° |
| 2026-04-27 13:08 | 51.56278 | -0.79681 | 5041 ft | 223 kts | 182° |
| 2026-04-27 13:08 | 51.54756 | -0.79650 | 4722 ft | 215 kts | 177° |
| 2026-04-27 13:08 | 51.53290 | -0.79540 | 4432 ft | 206 kts | 177° |
| 2026-04-27 13:09 | 51.51873 | -0.79440 | 4116 ft | 201 kts | 177° |
| 2026-04-27 13:09 | 51.50482 | -0.79334 | 3846 ft | 201 kts | 177° |
| 2026-04-27 13:09 | 51.49120 | -0.78989 | 3536 ft | 197 kts | 153° |
| 2026-04-27 13:09 | 51.48195 | -0.77546 | 3260 ft | 183 kts | 108° |
| 2026-04-27 13:10 | 51.47964 | -0.75486 | 3090 ft | 195 kts | 93° |
| 2026-04-27 13:10 | 51.47792 | -0.73334 | 2835 ft | 189 kts | 96° |
| 2026-04-27 13:10 | 51.47673 | -0.71291 | 2675 ft | 183 kts | 88° |
| 2026-04-27 13:10 | 51.47672 | -0.69230 | 2534 ft | 185 kts | 87° |
| 2026-04-27 13:11 | 51.47677 | -0.67223 | 2292 ft | 174 kts | 87° |
| 2026-04-27 13:11 | 51.47688 | -0.65329 | 2102 ft | 169 kts | 87° |
| 2026-04-27 13:11 | 51.47692 | -0.63468 | 1890 ft | 163 kts | 87° |
| 2026-04-27 13:11 | 51.47703 | -0.61656 | 1693 ft | 163 kts | 88° |
| 2026-04-27 13:12 | 51.47707 | -0.59819 | 1479 ft | 166 kts | 88° |
| 2026-04-27 13:12 | 51.47713 | -0.57966 | 1260 ft | 165 kts | 88° |
| 2026-04-27 13:12 | 51.47725 | -0.56168 | 1030 ft | 160 kts | 89° |
| 2026-04-27 13:12 | 51.47727 | -0.54398 | 827 ft | 162 kts | 88° |
| 2026-04-27 13:13 | 51.47733 | -0.52579 | 630 ft | 165 kts | 88° |
| 2026-04-27 13:13 | 51.47742 | -0.50727 | 396 ft | 167 kts | 88° |
| 2026-04-27 13:13 | 51.47748 | -0.48875 | 164 ft | 164 kts | 88° |
| 2026-04-27 13:13 | 51.47752 | -0.47116 | 102 ft | 147 kts | 89° |
| 2026-04-27 13:14 | 51.47759 | -0.45693 | 92 ft | 99 kts | 90° |
| 2026-04-27 13:14 | 51.47758 | -0.44960 | 95 ft | 33 kts | 109° |
| 2026-04-27 13:14 | 51.47664 | -0.44803 | 96 ft | 18 kts | 155° |
| 2026-04-27 13:14 | 51.47570 | -0.44680 | 94 ft | 18 kts | 152° |
| 2026-04-27 13:15 | 51.47465 | -0.44572 | 92 ft | 18 kts | 160° |
| 2026-04-27 13:15 | 51.47340 | -0.44560 | 92 ft | 18 kts | 178° |
| 2026-04-27 13:15 | 51.47214 | -0.44554 | 94 ft | 15 kts | 174° |
| 2026-04-27 13:15 | 51.47192 | -0.44481 | 95 ft | 2 kts | 95° |
| 2026-04-27 13:16 | 51.47192 | -0.44456 | 90 ft | 2 kts | 92° |
| 2026-04-27 13:16 | 51.47191 | -0.44430 | 90 ft | 2 kts | 91° |
| 2026-04-27 13:16 | 51.47191 | -0.44404 | 95 ft | 2 kts | 90° |
| 2026-04-27 13:16 | 51.47191 | -0.44393 | 91 ft | 0 kts | 90° |